createdAt,value
2023-05-10T00:03:52.139Z,100922.00
2023-05-10T00:08:45.706Z,100912.53
2023-05-10T00:13:38.373Z,100910.81
2023-05-10T00:18:31.248Z,100921.16
2023-05-10T00:23:21.302Z,100907.41
2023-05-10T00:28:11.392Z,100914.28
2023-05-10T00:33:01.659Z,100911.66
2023-05-10T00:37:54.312Z,100908.19
2023-05-10T00:42:47.659Z,100881.50
2023-05-10T00:47:38.282Z,100908.22
2023-05-10T00:52:30.308Z,100908.22
2023-05-10T00:57:25.628Z,100907.38
2023-05-10T01:02:16.370Z,100903.06
2023-05-10T01:07:07.775Z,100895.28
2023-05-10T01:11:59.345Z,100910.84
2023-05-10T01:16:53.428Z,100903.03
2023-05-10T01:21:51.472Z,100917.72
2023-05-10T01:27:10.610Z,100915.13
2023-05-10T01:32:30.433Z,100917.75
2023-05-10T01:37:29.798Z,100916.03
2023-05-10T01:42:25.050Z,100918.66
2023-05-10T01:47:24.557Z,100896.22
2023-05-10T01:52:20.416Z,100926.38
2023-05-10T01:57:13.516Z,100917.81
2023-05-10T02:02:07.247Z,100907.41
2023-05-10T02:07:01.265Z,100919.47
2023-05-10T02:11:52.956Z,100935.84
2023-05-10T02:16:44.436Z,100946.19
2023-05-10T02:21:35.657Z,100941.88
2023-05-10T02:26:30.926Z,100947.03
2023-05-10T02:31:25.392Z,100950.50
2023-05-10T02:36:17.812Z,100927.22
2023-05-10T02:41:09.970Z,100953.13
2023-05-10T02:46:03.260Z,100956.56
2023-05-10T02:50:56.528Z,100954.84
2023-05-10T02:55:52.830Z,100960.03
2023-05-10T03:00:46.396Z,100944.50
2023-05-10T03:05:39.157Z,100960.94
2023-05-10T03:10:33.357Z,100956.59
2023-05-10T03:15:34.589Z,100961.84
2023-05-10T03:20:32.133Z,100942.03
2023-05-10T03:25:26.814Z,100962.69
2023-05-10T03:30:18.780Z,100970.50
2023-05-10T03:35:11.442Z,100960.13
2023-05-10T03:40:03.357Z,100962.75
2023-05-10T03:45:01.578Z,100948.97
2023-05-10T03:49:54.424Z,100959.28
2023-05-10T03:54:44.461Z,100957.56
2023-05-10T03:59:34.888Z,100958.44
2023-05-10T04:04:27.762Z,100967.94
2023-05-10T04:09:18.313Z,100963.63
2023-05-10T04:14:08.339Z,100954.09
2023-05-10T04:18:58.858Z,100970.50
2023-05-10T04:23:51.604Z,100963.63
2023-05-10T04:28:43.945Z,100980.91
2023-05-10T04:33:35.249Z,100982.66
2023-05-10T04:38:25.854Z,100980.06
2023-05-10T04:43:18.835Z,100982.66
2023-05-10T04:48:09.510Z,100987.03
2023-05-10T04:52:59.362Z,100993.09
2023-05-10T04:57:49.204Z,101009.53
2023-05-10T05:02:43.461Z,100995.75
2023-05-10T05:07:39.024Z,101005.28
2023-05-10T05:12:38.783Z,101013.03
2023-05-10T05:17:38.752Z,100998.34
2023-05-10T05:22:37.398Z,101019.06
2023-05-10T05:32:58.128Z,100997.53
2023-05-10T05:37:50.590Z,101027.75
2023-05-10T05:42:50.050Z,101052.81
2023-05-10T05:47:46.718Z,101041.59
2023-05-10T05:52:37.261Z,101045.06
2023-05-10T05:57:32.732Z,101052.84
2023-05-10T06:02:22.684Z,101069.25
2023-05-10T06:07:12.941Z,101065.84
2023-05-10T06:12:02.881Z,101075.34
2023-05-10T06:16:55.736Z,101068.44
2023-05-10T06:21:45.816Z,101081.38
2023-05-10T06:26:35.763Z,101083.97
2023-05-10T06:31:25.819Z,101091.75
2023-05-10T06:36:20.476Z,101083.13
2023-05-10T06:41:10.355Z,101098.69
2023-05-10T06:46:00.340Z,101086.56
2023-05-10T06:50:50.365Z,101102.13
2023-05-10T06:55:42.904Z,101098.69
2023-05-10T07:00:32.775Z,101105.56
2023-05-10T07:05:23.476Z,101103.88
2023-05-10T07:10:14.535Z,101117.66
2023-05-10T07:15:08.424Z,101131.50
2023-05-10T07:19:58.377Z,101123.72
2023-05-10T07:24:48.445Z,101120.28
2023-05-10T07:29:38.608Z,101121.13
2023-05-10T07:34:31.783Z,101128.03
2023-05-10T07:39:27.484Z,101124.53
2023-05-10T07:44:19.762Z,101133.16
2023-05-10T07:49:09.651Z,101134.88
2023-05-10T07:54:03.695Z,101137.47
2023-05-10T07:58:53.437Z,101131.38
2023-05-10T08:03:43.387Z,101132.19
2023-05-10T08:08:33.346Z,101147.72
2023-05-10T08:13:27.009Z,101148.53
2023-05-10T08:18:17.226Z,101143.25
2023-05-10T08:23:07.329Z,101161.22
2023-05-10T08:27:57.221Z,101148.09
2023-05-10T08:33:05.895Z,101169.53
2023-05-10T08:37:55.748Z,101170.28
2023-05-10T08:42:51.802Z,101166.88
2023-05-10T08:47:42.958Z,101167.94
2023-05-10T08:52:41.895Z,101184.41
2023-05-10T08:57:31.934Z,101165.53
2023-05-10T09:02:23.431Z,101182.06
2023-05-10T09:07:15.064Z,101170.78
2023-05-10T09:12:08.610Z,101182.84
2023-05-10T09:16:59.098Z,101204.41
2023-05-10T09:21:48.947Z,101196.56
2023-05-10T09:32:47.791Z,101190.50
2023-05-10T09:37:37.650Z,101223.44
2023-05-10T09:42:30.389Z,101221.75
2023-05-10T09:47:21.700Z,101221.84
2023-05-10T09:52:11.968Z,101217.53
2023-05-10T09:57:01.964Z,101233.84
2023-05-10T10:01:57.145Z,101229.50
2023-05-10T10:06:51.538Z,101212.22
2023-05-10T10:11:42.789Z,101238.13
2023-05-10T10:16:33.934Z,101227.69
2023-05-10T10:21:30.511Z,101251.88
2023-05-10T10:26:24.848Z,101250.97
2023-05-10T10:31:30.532Z,101248.31
2023-05-10T10:36:28.378Z,101253.38
2023-05-10T10:41:40.359Z,101228.91
2023-05-10T10:46:30.627Z,101241.59
2023-05-10T10:51:26.018Z,101258.81
2023-05-10T10:56:19.647Z,101258.69
2023-05-10T11:02:14.654Z,101262.06
2023-05-10T11:07:22.344Z,101256.09
2023-05-10T11:12:13.791Z,101254.53
2023-05-10T11:17:26.206Z,101274.66
2023-05-10T11:22:18.268Z,101266.97
2023-05-10T11:27:08.510Z,101268.72
2023-05-10T11:32:01.990Z,101275.81
2023-05-10T11:36:55.651Z,101265.41
2023-05-10T11:41:52.345Z,101272.19
2023-05-10T11:47:30.877Z,101271.19
2023-05-10T11:52:25.073Z,101278.78
2023-05-10T11:59:30.679Z,101280.28
2023-05-10T12:04:01.827Z,101281.53
2023-05-10T12:32:48.300Z,101291.25
2023-05-10T12:37:40.207Z,101291.25
2023-05-10T12:42:30.453Z,101296.47
2023-05-10T12:47:20.362Z,101302.56
2023-05-10T12:52:14.325Z,101292.38
2023-05-10T12:57:04.127Z,101306.22
2023-05-10T13:01:54.048Z,101306.31
2023-05-10T13:06:44.050Z,101299.44
2023-05-10T13:11:36.581Z,101311.38
2023-05-10T13:16:26.629Z,101281.75
2023-05-10T13:21:17.795Z,101313.50
2023-05-10T13:26:07.558Z,101315.75
2023-05-10T13:31:01.221Z,101307.88
2023-05-10T13:35:51.040Z,101304.34
2023-05-10T13:40:40.861Z,101320.47
2023-05-10T13:45:30.834Z,101321.78
2023-05-10T13:50:26.074Z,101314.63
2023-05-10T13:55:17.110Z,101293.78
2023-05-10T14:00:08.945Z,101318.06
2023-05-10T14:04:59.510Z,101318.16
2023-05-10T14:09:52.008Z,101311.38
2023-05-10T14:14:45.461Z,101320.28
2023-05-10T14:19:35.941Z,101311.94
2023-05-10T14:24:25.770Z,101312.09
2023-05-10T14:29:18.613Z,101295.66
2023-05-10T14:34:08.497Z,101290.22
2023-05-10T14:38:58.328Z,101308.22
2023-05-10T14:43:48.181Z,101318.00
2023-05-10T14:48:40.664Z,101303.72
2023-05-10T14:53:30.584Z,101305.72
2023-05-10T14:58:22.665Z,101313.78
2023-05-10T15:03:12.701Z,101314.84
2023-05-10T15:08:08.414Z,101303.81
2023-05-10T15:12:58.143Z,101313.38
2023-05-10T15:17:49.201Z,101322.13
2023-05-10T15:22:42.762Z,101321.25
2023-05-10T15:27:37.535Z,101316.19
2023-05-10T15:32:27.314Z,101311.97
2023-05-10T15:37:17.123Z,101324.25
2023-05-10T15:42:07.517Z,101337.28
2023-05-10T15:47:00.114Z,101328.69
2023-05-10T15:51:49.958Z,101347.72
2023-05-10T15:56:40.270Z,101347.75
2023-05-10T16:01:31.065Z,101352.06
2023-05-10T16:06:26.226Z,101341.72
2023-05-10T16:11:16.709Z,101353.88
2023-05-10T16:16:09.186Z,101361.69
2023-05-10T16:20:59.441Z,101342.88
2023-05-10T16:25:51.844Z,101355.84
2023-05-10T16:30:41.911Z,101368.97
2023-05-10T16:35:32.482Z,101353.50
2023-05-10T16:40:24.657Z,101358.78
2023-05-10T16:45:17.503Z,101364.03
2023-05-10T16:50:10.062Z,101376.28
2023-05-10T16:54:59.976Z,101382.53
2023-05-10T16:59:49.859Z,101381.78
2023-05-10T17:04:42.241Z,101378.44
2023-05-10T17:09:32.239Z,101390.63
2023-05-10T17:14:22.277Z,101388.09
2023-05-10T17:19:12.453Z,101390.69
2023-05-10T17:24:07.430Z,101378.59
2023-05-10T17:28:57.438Z,101395.03
2023-05-10T17:33:47.191Z,101395.91
2023-05-10T17:38:37.105Z,101323.28
2023-05-10T17:43:30.953Z,101385.47
2023-05-10T17:48:28.964Z,101369.91
2023-05-10T17:53:20.819Z,101404.50
2023-05-10T17:58:10.791Z,101411.47
2023-05-10T18:03:03.415Z,101412.34
2023-05-10T18:07:53.592Z,101402.84
2023-05-10T18:12:43.665Z,101402.88
2023-05-10T18:17:35.128Z,101401.16
2023-05-10T18:22:28.054Z,101418.50
2023-05-10T18:27:18.047Z,101412.47
2023-05-10T18:32:10.051Z,101397.75
2023-05-10T18:37:00.447Z,101422.00
2023-05-10T18:41:53.174Z,101423.75
2023-05-10T18:46:44.349Z,101434.22
2023-05-10T18:51:36.677Z,101427.34
2023-05-10T18:56:26.960Z,101431.63
2023-05-10T19:01:19.840Z,101437.69
2023-05-10T19:06:09.906Z,101438.59
2023-05-10T19:10:59.977Z,101428.19
2023-05-10T19:15:50.118Z,101444.72
2023-05-10T19:20:44.731Z,101404.09
2023-05-10T19:25:37.203Z,101426.66
2023-05-10T19:30:27.307Z,101461.28
2023-05-10T19:35:21.344Z,101461.31
2023-05-10T19:40:16.014Z,101464.78
2023-05-10T19:45:06.109Z,101465.69
2023-05-10T19:49:58.828Z,101482.16
2023-05-10T19:54:49.100Z,101488.25
2023-05-10T19:59:43.549Z,101494.31
2023-05-10T20:04:35.850Z,101460.56
2023-05-10T20:09:25.925Z,101423.28
2023-05-10T20:14:17.199Z,101482.22
2023-05-10T20:19:09.959Z,101489.16
2023-05-10T20:23:59.946Z,101490.03
2023-05-10T20:28:51.365Z,101498.69
2023-05-10T20:33:42.975Z,101502.16
2023-05-10T20:38:35.454Z,101486.56
2023-05-10T20:43:25.556Z,101490.91
2023-05-10T20:48:16.174Z,101504.78
2023-05-10T20:53:06.334Z,101501.31
2023-05-10T20:57:58.778Z,101473.56
2023-05-10T21:02:49.410Z,101483.09
2023-05-10T21:07:39.623Z,101488.31
2023-05-10T21:12:29.949Z,101477.88
2023-05-10T21:17:24.268Z,101461.41
2023-05-10T21:22:14.742Z,101493.47
2023-05-10T21:27:05.175Z,101496.97
2023-05-10T21:31:55.057Z,101477.88
2023-05-10T21:36:47.676Z,101483.94
2023-05-10T21:41:37.689Z,101486.56
2023-05-10T21:46:28.709Z,101502.16
2023-05-10T21:51:18.662Z,101489.16
2023-05-10T21:56:11.177Z,101491.75
2023-05-10T22:01:01.105Z,101496.06
2023-05-10T22:05:51.654Z,101497.81
2023-05-10T22:10:41.407Z,101496.06
2023-05-10T22:15:36.315Z,101479.63
2023-05-10T22:20:26.688Z,101494.34
2023-05-10T22:25:17.853Z,101495.25
2023-05-10T22:30:11.457Z,101483.97
2023-05-10T22:35:04.496Z,101496.09
2023-05-10T22:39:54.527Z,101469.22
2023-05-10T22:44:45.372Z,101488.31
2023-05-10T22:49:35.467Z,101485.69
2023-05-10T22:54:28.157Z,101484.84
2023-05-10T22:59:18.083Z,101496.09
2023-05-10T23:04:08.382Z,101486.53
2023-05-10T23:08:58.475Z,101497.84
2023-05-10T23:13:51.096Z,101486.56
2023-05-10T23:18:41.336Z,101496.09
2023-05-10T23:23:32.928Z,101490.03
2023-05-10T23:28:22.956Z,101503.03
2023-05-10T23:33:15.698Z,101495.25
2023-05-10T23:38:05.490Z,101508.25
2023-05-10T23:42:55.536Z,101504.78
2023-05-10T23:47:46.976Z,101490.00
2023-05-10T23:52:39.960Z,101498.69
2023-05-10T23:57:29.899Z,101509.09
